sensor_id;sensor_type;location;lat;lon;timestamp;temperature;humidity
61455;DHT22;47319;0.000;0.000;2022-07-09T00:57:55;15.90;99.90
61455;DHT22;47319;0.000;0.000;2022-07-09T00:59:39;16.10;99.90
61455;DHT22;47319;0.000;0.000;2022-07-09T01:10:48;15.90;99.90
61455;DHT22;47319;0.000;0.000;2022-07-09T01:25:36;16.00;99.90
61455;DHT22;47319;0.000;0.000;2022-07-09T01:26:28;16.00;99.90
61455;DHT22;47319;0.000;0.000;2022-07-09T01:41:04;15.80;99.90
61455;DHT22;47319;0.000;0.000;2022-07-09T01:42:47;15.90;99.90
61455;DHT22;47319;0.000;0.000;2022-07-09T02:35:07;14.70;99.90
61455;DHT22;47319;0.000;0.000;2022-07-09T03:05:08;14.90;99.90
61455;DHT22;47319;0.000;0.000;2022-07-09T05:00:05;16.60;99.90
61455;DHT22;47319;0.000;0.000;2022-07-09T06:35:24;18.40;99.90
61455;DHT22;47319;0.000;0.000;2022-07-09T07:46:37;19.50;98.30
61455;DHT22;47319;0.000;0.000;2022-07-09T08:06:25;20.50;99.90
61455;DHT22;47319;0.000;0.000;2022-07-09T08:20:09;20.60;90.00
61455;DHT22;47319;0.000;0.000;2022-07-09T08:25:17;21.40;93.10
61455;DHT22;47319;0.000;0.000;2022-07-09T08:45:54;21.00;89.10
61455;DHT22;47319;0.000;0.000;2022-07-09T09:25:17;22.30;75.30
61455;DHT22;47319;0.000;0.000;2022-07-09T09:28:50;22.40;69.80
61455;DHT22;47319;0.000;0.000;2022-07-09T09:36:48;22.20;69.50
61455;DHT22;47319;0.000;0.000;2022-07-09T09:39:23;22.90;69.80
61455;DHT22;47319;0.000;0.000;2022-07-09T09:42:50;22.50;69.60
61455;DHT22;47319;0.000;0.000;2022-07-09T09:57:38;22.20;67.10
61455;DHT22;47319;0.000;0.000;2022-07-09T10:00:14;22.50;64.20
61455;DHT22;47319;0.000;0.000;2022-07-09T10:01:58;22.40;67.10
61455;DHT22;47319;0.000;0.000;2022-07-09T10:12:35;22.70;70.00
61455;DHT22;47319;0.000;0.000;2022-07-09T10:15:20;22.90;63.20
61455;DHT22;47319;0.000;0.000;2022-07-09T10:25:23;23.50;57.30
61455;DHT22;47319;0.000;0.000;2022-07-09T10:32:30;24.20;56.80
61455;DHT22;47319;0.000;0.000;2022-07-09T10:36:14;24.30;56.10
61455;DHT22;47319;0.000;0.000;2022-07-09T10:45:53;24.40;57.20
61455;DHT22;47319;0.000;0.000;2022-07-09T10:48:42;24.50;53.10
61455;DHT22;47319;0.000;0.000;2022-07-09T10:54:47;24.90;54.70
61455;DHT22;47319;0.000;0.000;2022-07-09T10:55:42;24.90;55.50
61455;DHT22;47319;0.000;0.000;2022-07-09T10:56:35;25.30;55.80
61455;DHT22;47319;0.000;0.000;2022-07-09T11:03:30;25.40;57.00
61455;DHT22;47319;0.000;0.000;2022-07-09T11:04:25;25.70;55.00
61455;DHT22;47319;0.000;0.000;2022-07-09T11:05:17;25.80;55.50
61455;DHT22;47319;0.000;0.000;2022-07-09T11:06:08;25.80;52.60
61455;DHT22;47319;0.000;0.000;2022-07-09T11:07:01;25.50;52.70
61455;DHT22;47319;0.000;0.000;2022-07-09T11:08:10;25.50;52.90
61455;DHT22;47319;0.000;0.000;2022-07-09T11:09:11;25.50;53.20
61455;DHT22;47319;0.000;0.000;2022-07-09T11:10:03;25.20;54.20
61455;DHT22;47319;0.000;0.000;2022-07-09T11:10:54;25.20;53.10
61455;DHT22;47319;0.000;0.000;2022-07-09T11:11:46;25.10;52.40
61455;DHT22;47319;0.000;0.000;2022-07-09T11:12:47;25.30;52.90
61455;DHT22;47319;0.000;0.000;2022-07-09T11:13:38;25.60;52.90
61455;DHT22;47319;0.000;0.000;2022-07-09T11:14:30;25.60;51.70
61455;DHT22;47319;0.000;0.000;2022-07-09T11:15:21;25.60;51.70
61455;DHT22;47319;0.000;0.000;2022-07-09T11:16:21;25.30;52.30
61455;DHT22;47319;0.000;0.000;2022-07-09T11:17:17;25.00;52.60
61455;DHT22;47319;0.000;0.000;2022-07-09T11:18:09;25.10;54.50
61455;DHT22;47319;0.000;0.000;2022-07-09T11:19:12;24.90;53.60
61455;DHT22;47319;0.000;0.000;2022-07-09T11:20:04;24.90;54.00
61455;DHT22;47319;0.000;0.000;2022-07-09T11:20:56;24.60;54.70
61455;DHT22;47319;0.000;0.000;2022-07-09T11:21:47;24.70;54.70
61455;DHT22;47319;0.000;0.000;2022-07-09T11:22:46;25.10;52.30
61455;DHT22;47319;0.000;0.000;2022-07-09T11:23:37;25.30;52.50
61455;DHT22;47319;0.000;0.000;2022-07-09T11:24:29;25.30;51.20
61455;DHT22;47319;0.000;0.000;2022-07-09T11:25:20;25.30;52.20
61455;DHT22;47319;0.000;0.000;2022-07-09T11:26:11;25.30;52.60
61455;DHT22;47319;0.000;0.000;2022-07-09T11:27:06;25.50;52.60
61455;DHT22;47319;0.000;0.000;2022-07-09T11:27:58;25.70;52.60
61455;DHT22;47319;0.000;0.000;2022-07-09T11:28:50;25.70;53.50
61455;DHT22;47319;0.000;0.000;2022-07-09T11:29:46;25.70;52.80
61455;DHT22;47319;0.000;0.000;2022-07-09T11:30:37;25.60;53.30
61455;DHT22;47319;0.000;0.000;2022-07-09T11:31:28;25.80;53.90
61455;DHT22;47319;0.000;0.000;2022-07-09T11:32:20;25.90;51.30
61455;DHT22;47319;0.000;0.000;2022-07-09T11:33:12;25.90;50.30
61455;DHT22;47319;0.000;0.000;2022-07-09T11:34:03;26.00;49.80
61455;DHT22;47319;0.000;0.000;2022-07-09T11:34:55;25.90;48.90
61455;DHT22;47319;0.000;0.000;2022-07-09T11:35:46;26.00;49.80
61455;DHT22;47319;0.000;0.000;2022-07-09T11:36:38;25.70;50.90
61455;DHT22;47319;0.000;0.000;2022-07-09T11:37:29;25.60;51.20
61455;DHT22;47319;0.000;0.000;2022-07-09T11:38:21;25.80;51.10
61455;DHT22;47319;0.000;0.000;2022-07-09T11:39:23;25.60;53.20
61455;DHT22;47319;0.000;0.000;2022-07-09T11:40:16;25.70;52.70
61455;DHT22;47319;0.000;0.000;2022-07-09T11:41:07;25.70;51.90
61455;DHT22;47319;0.000;0.000;2022-07-09T11:42:00;25.80;52.30
61455;DHT22;47319;0.000;0.000;2022-07-09T11:42:51;26.00;51.40
61455;DHT22;47319;0.000;0.000;2022-07-09T11:43:46;26.10;51.40
61455;DHT22;47319;0.000;0.000;2022-07-09T11:44:37;25.90;51.90
61455;DHT22;47319;0.000;0.000;2022-07-09T11:45:29;25.90;51.40
61455;DHT22;47319;0.000;0.000;2022-07-09T11:46:21;25.90;52.40
61455;DHT22;47319;0.000;0.000;2022-07-09T11:47:12;26.10;53.10
61455;DHT22;47319;0.000;0.000;2022-07-09T11:48:04;26.20;52.50
61455;DHT22;47319;0.000;0.000;2022-07-09T11:48:56;26.20;53.20
61455;DHT22;47319;0.000;0.000;2022-07-09T11:49:47;26.30;52.00
61455;DHT22;47319;0.000;0.000;2022-07-09T11:50:42;25.50;51.70
61455;DHT22;47319;0.000;0.000;2022-07-09T11:51:34;25.00;53.10
61455;DHT22;47319;0.000;0.000;2022-07-09T11:52:25;24.80;54.20
61455;DHT22;47319;0.000;0.000;2022-07-09T11:53:21;24.70;55.50
61455;DHT22;47319;0.000;0.000;2022-07-09T11:54:12;24.60;55.30
61455;DHT22;47319;0.000;0.000;2022-07-09T11:55:05;24.30;56.00
61455;DHT22;47319;0.000;0.000;2022-07-09T11:55:58;24.30;56.50
61455;DHT22;47319;0.000;0.000;2022-07-09T11:56:49;24.00;57.60
61455;DHT22;47319;0.000;0.000;2022-07-09T11:57:51;24.00;57.80
61455;DHT22;47319;0.000;0.000;2022-07-09T11:58:49;24.30;57.10
61455;DHT22;47319;0.000;0.000;2022-07-09T11:59:40;24.40;56.60
61455;DHT22;47319;0.000;0.000;2022-07-09T12:00:33;24.60;56.20
61455;DHT22;47319;0.000;0.000;2022-07-09T12:01:26;24.90;54.20
61455;DHT22;47319;0.000;0.000;2022-07-09T12:02:24;25.10;53.30
61455;DHT22;47319;0.000;0.000;2022-07-09T12:03:23;25.20;53.20
61455;DHT22;47319;0.000;0.000;2022-07-09T12:04:18;24.90;53.30
61455;DHT22;47319;0.000;0.000;2022-07-09T12:05:09;24.90;53.90
61455;DHT22;47319;0.000;0.000;2022-07-09T12:06:01;24.60;54.60
61455;DHT22;47319;0.000;0.000;2022-07-09T12:06:52;24.60;55.30
61455;DHT22;47319;0.000;0.000;2022-07-09T12:07:51;24.20;55.90
61455;DHT22;47319;0.000;0.000;2022-07-09T12:08:43;24.60;56.10
61455;DHT22;47319;0.000;0.000;2022-07-09T12:09:35;24.90;56.20
61455;DHT22;47319;0.000;0.000;2022-07-09T12:10:28;24.90;55.70
61455;DHT22;47319;0.000;0.000;2022-07-09T12:11:26;25.00;56.00
61455;DHT22;47319;0.000;0.000;2022-07-09T12:12:17;24.90;56.20
61455;DHT22;47319;0.000;0.000;2022-07-09T12:13:08;24.90;55.80
61455;DHT22;47319;0.000;0.000;2022-07-09T12:13:59;24.60;55.70
61455;DHT22;47319;0.000;0.000;2022-07-09T12:14:51;24.10;56.60
61455;DHT22;47319;0.000;0.000;2022-07-09T12:15:42;23.90;56.60
61455;DHT22;47319;0.000;0.000;2022-07-09T12:16:33;24.10;56.60
61455;DHT22;47319;0.000;0.000;2022-07-09T12:17:25;24.20;55.40
61455;DHT22;47319;0.000;0.000;2022-07-09T12:18:16;24.30;55.80
61455;DHT22;47319;0.000;0.000;2022-07-09T12:19:07;24.50;56.20
61455;DHT22;47319;0.000;0.000;2022-07-09T12:19:59;24.60;56.20
61455;DHT22;47319;0.000;0.000;2022-07-09T12:20:50;24.60;55.30
61455;DHT22;47319;0.000;0.000;2022-07-09T12:21:42;24.60;55.70
61455;DHT22;47319;0.000;0.000;2022-07-09T12:22:33;24.40;56.10
61455;DHT22;47319;0.000;0.000;2022-07-09T12:23:24;24.50;56.30
61455;DHT22;47319;0.000;0.000;2022-07-09T12:24:17;24.80;55.80
61455;DHT22;47319;0.000;0.000;2022-07-09T12:25:08;24.90;55.30
61455;DHT22;47319;0.000;0.000;2022-07-09T12:25:59;24.90;56.10
61455;DHT22;47319;0.000;0.000;2022-07-09T12:26:51;25.20;54.90
61455;DHT22;47319;0.000;0.000;2022-07-09T12:27:42;25.60;54.40
61455;DHT22;47319;0.000;0.000;2022-07-09T12:28:33;25.60;53.80
61455;DHT22;47319;0.000;0.000;2022-07-09T12:29:24;25.40;53.40
61455;DHT22;47319;0.000;0.000;2022-07-09T12:30:16;25.50;53.90
61455;DHT22;47319;0.000;0.000;2022-07-09T12:31:08;25.40;53.60
61455;DHT22;47319;0.000;0.000;2022-07-09T12:31:59;25.40;53.10
61455;DHT22;47319;0.000;0.000;2022-07-09T12:32:50;25.70;52.40
61455;DHT22;47319;0.000;0.000;2022-07-09T12:33:42;25.60;52.20
61455;DHT22;47319;0.000;0.000;2022-07-09T12:34:33;25.30;52.70
61455;DHT22;47319;0.000;0.000;2022-07-09T12:35:25;25.20;53.10
61455;DHT22;47319;0.000;0.000;2022-07-09T12:36:16;25.50;53.50
61455;DHT22;47319;0.000;0.000;2022-07-09T12:37:07;25.90;52.30
61455;DHT22;47319;0.000;0.000;2022-07-09T12:37:58;25.90;51.20
61455;DHT22;47319;0.000;0.000;2022-07-09T12:38:49;26.00;53.40
61455;DHT22;47319;0.000;0.000;2022-07-09T12:39:42;26.40;51.70
61455;DHT22;47319;0.000;0.000;2022-07-09T12:40:33;26.50;51.00
61455;DHT22;47319;0.000;0.000;2022-07-09T12:41:24;26.50;51.50
61455;DHT22;47319;0.000;0.000;2022-07-09T12:42:16;26.00;52.30
61455;DHT22;47319;0.000;0.000;2022-07-09T12:43:07;25.50;53.40
61455;DHT22;47319;0.000;0.000;2022-07-09T12:43:58;25.60;52.80
61455;DHT22;47319;0.000;0.000;2022-07-09T12:44:51;25.40;52.70
61455;DHT22;47319;0.000;0.000;2022-07-09T12:45:42;25.60;52.60
61455;DHT22;47319;0.000;0.000;2022-07-09T12:46:33;25.60;52.90
61455;DHT22;47319;0.000;0.000;2022-07-09T12:47:24;25.60;52.80
61455;DHT22;47319;0.000;0.000;2022-07-09T12:48:16;25.40;53.40
61455;DHT22;47319;0.000;0.000;2022-07-09T12:49:07;25.50;53.90
61455;DHT22;47319;0.000;0.000;2022-07-09T12:49:58;25.60;55.10
61455;DHT22;47319;0.000;0.000;2022-07-09T12:50:49;26.00;53.20
61455;DHT22;47319;0.000;0.000;2022-07-09T12:51:41;25.90;53.00
61455;DHT22;47319;0.000;0.000;2022-07-09T12:52:32;25.70;53.30
61455;DHT22;47319;0.000;0.000;2022-07-09T12:53:23;25.60;53.30
61455;DHT22;47319;0.000;0.000;2022-07-09T12:54:15;25.20;53.90
61455;DHT22;47319;0.000;0.000;2022-07-09T12:55:08;25.10;55.00
61455;DHT22;47319;0.000;0.000;2022-07-09T12:55:59;25.20;55.00
61455;DHT22;47319;0.000;0.000;2022-07-09T12:56:50;24.30;54.40
61455;DHT22;47319;0.000;0.000;2022-07-09T12:57:41;24.40;55.60
61455;DHT22;47319;0.000;0.000;2022-07-09T12:58:32;24.30;56.60
61455;DHT22;47319;0.000;0.000;2022-07-09T12:59:24;24.20;56.80
61455;DHT22;47319;0.000;0.000;2022-07-09T13:00:15;24.20;56.90
61455;DHT22;47319;0.000;0.000;2022-07-09T13:01:06;24.20;56.80
61455;DHT22;47319;0.000;0.000;2022-07-09T13:01:57;24.10;56.80
61455;DHT22;47319;0.000;0.000;2022-07-09T13:02:49;24.00;58.30
61455;DHT22;47319;0.000;0.000;2022-07-09T13:03:40;24.10;56.90
61455;DHT22;47319;0.000;0.000;2022-07-09T13:04:31;24.00;56.90
61455;DHT22;47319;0.000;0.000;2022-07-09T13:05:22;23.70;57.50
61455;DHT22;47319;0.000;0.000;2022-07-09T13:06:13;23.80;57.20
61455;DHT22;47319;0.000;0.000;2022-07-09T13:07:04;24.10;56.30
61455;DHT22;47319;0.000;0.000;2022-07-09T13:07:56;24.40;56.00
61455;DHT22;47319;0.000;0.000;2022-07-09T13:08:47;24.50;55.00
61455;DHT22;47319;0.000;0.000;2022-07-09T13:09:38;24.50;55.20
61455;DHT22;47319;0.000;0.000;2022-07-09T13:10:31;24.60;55.70
61455;DHT22;47319;0.000;0.000;2022-07-09T13:11:22;25.00;55.40
61455;DHT22;47319;0.000;0.000;2022-07-09T13:12:13;25.40;54.40
61455;DHT22;47319;0.000;0.000;2022-07-09T13:13:05;25.70;52.90
61455;DHT22;47319;0.000;0.000;2022-07-09T13:13:56;25.90;52.80
61455;DHT22;47319;0.000;0.000;2022-07-09T13:14:47;25.90;53.80
61455;DHT22;47319;0.000;0.000;2022-07-09T13:15:38;25.80;53.90
61455;DHT22;47319;0.000;0.000;2022-07-09T13:16:30;25.30;53.80
61455;DHT22;47319;0.000;0.000;2022-07-09T13:17:21;25.00;54.90
61455;DHT22;47319;0.000;0.000;2022-07-09T13:25:04;25.00;55.10
61455;DHT22;47319;0.000;0.000;2022-07-09T14:03:42;22.60;65.20
61455;DHT22;47319;0.000;0.000;2022-07-09T14:25:08;20.60;85.60
61455;DHT22;47319;0.000;0.000;2022-07-09T14:27:43;21.20;76.70
61455;DHT22;47319;0.000;0.000;2022-07-09T14:49:09;20.60;81.90
61455;DHT22;47319;0.000;0.000;2022-07-09T14:50:52;20.90;82.00
61455;DHT22;47319;0.000;0.000;2022-07-09T16:20:08;24.60;92.50
61455;DHT22;47319;0.000;0.000;2022-07-09T16:31:18;23.60;70.80
61455;DHT22;47319;0.000;0.000;2022-07-09T17:02:09;23.10;71.30
61455;DHT22;47319;0.000;0.000;2022-07-09T17:17:36;23.10;71.30
61455;DHT22;47319;0.000;0.000;2022-07-09T17:20:10;23.10;70.70
61455;DHT22;47319;0.000;0.000;2022-07-09T17:33:02;21.70;77.40
61455;DHT22;47319;0.000;0.000;2022-07-09T17:48:31;21.10;79.50
61455;DHT22;47319;0.000;0.000;2022-07-09T17:57:05;20.20;99.30
61455;DHT22;47319;0.000;0.000;2022-07-09T17:57:57;20.30;84.50
61455;DHT22;47319;0.000;0.000;2022-07-09T18:34:58;19.60;90.90
61455;DHT22;47319;0.000;0.000;2022-07-09T18:40:07;19.50;96.30
61455;DHT22;47319;0.000;0.000;2022-07-09T18:50:25;19.20;93.80
61455;DHT22;47319;0.000;0.000;2022-07-09T19:05:51;18.90;95.60
61455;DHT22;47319;0.000;0.000;2022-07-09T19:09:18;18.70;95.80
61455;DHT22;47319;0.000;0.000;2022-07-09T19:21:18;18.50;97.10
61455;DHT22;47319;0.000;0.000;2022-07-09T19:40:11;18.20;99.20
61455;DHT22;47319;0.000;0.000;2022-07-09T19:47:02;17.90;99.90
61455;DHT22;47319;0.000;0.000;2022-07-09T19:52:12;17.80;99.90
61455;DHT22;47319;0.000;0.000;2022-07-09T20:35:05;17.10;99.90
61455;DHT22;47319;0.000;0.000;2022-07-09T20:38:34;16.90;99.90
61455;DHT22;47319;0.000;0.000;2022-07-09T20:54:00;16.80;99.90
61455;DHT22;47319;0.000;0.000;2022-07-09T21:09:26;16.90;99.90
61455;DHT22;47319;0.000;0.000;2022-07-09T21:40:19;16.40;99.90
61455;DHT22;47319;0.000;0.000;2022-07-09T22:11:12;16.00;99.90
61455;DHT22;47319;0.000;0.000;2022-07-09T22:24:04;15.90;99.90
61455;DHT22;47319;0.000;0.000;2022-07-09T22:30:06;16.00;99.90
61455;DHT22;47319;0.000;0.000;2022-07-09T22:42:07;16.00;99.90
61455;DHT22;47319;0.000;0.000;2022-07-09T23:47:23;15.50;99.90
